createdAt,value
2022-08-03T00:02:25.287Z,2.40
2022-08-03T00:05:26.894Z,2.38
2022-08-03T00:08:28.531Z,2.67
2022-08-03T00:11:30.397Z,2.70
2022-08-03T00:14:31.963Z,2.65
2022-08-03T00:17:53.531Z,2.40
2022-08-03T00:20:55.174Z,2.42
2022-08-03T00:23:56.732Z,1.92
2022-08-03T00:26:58.346Z,2.30
2022-08-03T00:30:00.606Z,2.40
2022-08-03T00:33:02.315Z,2.50
2022-08-03T00:36:04.522Z,2.10
2022-08-03T00:39:06.089Z,2.50
2022-08-03T00:42:07.847Z,2.30
2022-08-03T00:45:09.735Z,2.33
2022-08-03T00:48:29.722Z,2.30
2022-08-03T00:51:34.187Z,2.20
2022-08-03T00:54:37.748Z,2.85
2022-08-03T00:57:39.551Z,2.30
2022-08-03T01:00:41.720Z,2.40
2022-08-03T01:03:43.339Z,2.28
2022-08-03T01:07:11.639Z,2.75
2022-08-03T01:10:47.125Z,2.30
2022-08-03T01:14:01.583Z,2.42
2022-08-03T01:17:19.157Z,2.83
2022-08-03T01:20:24.034Z,2.50
2022-08-03T01:23:47.546Z,2.30
2022-08-03T01:27:15.800Z,2.40
2022-08-03T01:30:17.640Z,2.70
2022-08-03T01:33:24.396Z,3.10
2022-08-03T01:36:32.560Z,2.70
2022-08-03T01:39:37.862Z,3.13
2022-08-03T01:42:41.028Z,3.08
2022-08-03T01:45:44.710Z,2.85
2022-08-03T01:48:48.730Z,3.30
2022-08-03T01:52:03.352Z,3.30
2022-08-03T01:55:08.314Z,3.08
2022-08-03T01:58:12.138Z,3.28
2022-08-03T02:01:15.609Z,3.25
2022-08-03T02:04:19.029Z,3.78
2022-08-03T02:07:21.491Z,3.65
2022-08-03T02:10:35.223Z,3.38
2022-08-03T02:13:39.180Z,3.60
2022-08-03T02:16:40.846Z,3.38
2022-08-03T02:19:46.176Z,3.60
2022-08-03T02:22:48.315Z,3.72
2022-08-03T02:25:56.228Z,3.40
2022-08-03T02:29:05.926Z,3.38
2022-08-03T02:32:12.268Z,3.25
2022-08-03T02:35:17.430Z,3.55
2022-08-03T02:38:23.534Z,3.92
2022-08-03T02:41:30.705Z,4.07
2022-08-03T02:44:33.659Z,3.67
2022-08-03T02:47:53.402Z,3.78
2022-08-03T02:50:58.676Z,3.50
2022-08-03T02:54:03.555Z,3.22
2022-08-03T02:57:08.247Z,3.50
2022-08-03T03:00:10.426Z,4.10
2022-08-03T03:03:13.132Z,4.28
2022-08-03T03:06:17.890Z,3.97
2022-08-03T03:09:21.920Z,4.15
2022-08-03T03:12:24.790Z,3.83
2022-08-03T03:15:27.838Z,3.83
2022-08-03T03:18:32.901Z,4.47
2022-08-03T03:21:36.558Z,4.07
2022-08-03T03:24:39.807Z,4.43
2022-08-03T03:27:41.800Z,4.20
2022-08-03T03:30:52.986Z,4.93
2022-08-03T03:33:59.895Z,4.25
2022-08-03T03:37:02.067Z,4.65
2022-08-03T03:40:04.194Z,4.50
2022-08-03T03:43:10.788Z,4.97
2022-08-03T03:46:13.160Z,4.65
2022-08-03T03:49:14.993Z,4.70
2022-08-03T03:52:19.303Z,5.28
2022-08-03T03:55:21.062Z,4.82
2022-08-03T03:58:22.640Z,5.30
2022-08-03T04:01:27.251Z,5.10
2022-08-03T04:04:47.333Z,5.35
2022-08-03T04:08:21.800Z,5.93
2022-08-03T04:11:31.967Z,5.63
2022-08-03T04:17:36.744Z,5.35
2022-08-03T04:20:40.559Z,5.82
2022-08-03T04:23:46.427Z,6.10
2022-08-03T04:26:52.730Z,5.53
2022-08-03T04:29:57.442Z,5.40
2022-08-03T04:33:01.846Z,5.50
2022-08-03T04:36:07.649Z,5.90
2022-08-03T04:39:14.748Z,5.55
2022-08-03T04:42:21.000Z,6.28
2022-08-03T04:45:24.355Z,6.03
2022-08-03T04:48:26.390Z,5.75
2022-08-03T04:51:28.971Z,6.30
2022-08-03T04:54:31.067Z,5.82
2022-08-03T04:57:32.703Z,5.68
2022-08-03T05:00:34.483Z,5.13
2022-08-03T05:03:36.454Z,5.85
2022-08-03T05:06:39.835Z,6.07
2022-08-03T05:09:52.619Z,5.60
2022-08-03T05:12:54.711Z,6.55
2022-08-03T05:15:56.470Z,5.97
2022-08-03T05:18:58.050Z,5.55
2022-08-03T05:21:59.883Z,5.50
2022-08-03T05:25:02.135Z,6.18
2022-08-03T05:28:03.974Z,4.97
2022-08-03T05:31:05.750Z,5.85
2022-08-03T05:34:07.352Z,5.40
2022-08-03T05:37:09.284Z,5.43
2022-08-03T05:40:11.611Z,5.60
2022-08-03T05:43:13.175Z,4.88
2022-08-03T05:46:14.812Z,5.47
2022-08-03T05:49:16.484Z,5.68
2022-08-03T05:52:18.170Z,5.85
2022-08-03T05:55:20.299Z,5.05
2022-08-03T05:58:21.967Z,4.70
2022-08-03T06:01:23.786Z,5.35
2022-08-03T06:04:25.378Z,5.45
2022-08-03T06:07:27.511Z,4.95
2022-08-03T06:10:36.062Z,5.30
2022-08-03T06:13:39.628Z,5.22
2022-08-03T06:16:41.308Z,4.90
2022-08-03T06:19:42.947Z,4.55
2022-08-03T06:22:50.596Z,4.82
2022-08-03T06:25:53.132Z,5.80
2022-08-03T06:28:55.446Z,5.15
2022-08-03T06:31:57.126Z,5.55
2022-08-03T06:34:58.735Z,4.80
2022-08-03T06:38:00.328Z,4.30
2022-08-03T06:41:01.959Z,4.28
2022-08-03T06:44:04.497Z,4.15
2022-08-03T06:47:06.332Z,4.20
2022-08-03T06:50:17.141Z,4.47
2022-08-03T06:53:21.196Z,4.53
2022-08-03T06:56:23.175Z,3.60
2022-08-03T07:00:06.576Z,3.75
2022-08-03T07:02:46.341Z,3.60
2022-08-03T07:05:50.789Z,4.13
2022-08-03T07:08:55.457Z,3.45
2022-08-03T07:11:59.484Z,3.90
2022-08-03T07:15:03.108Z,4.22
2022-08-03T07:18:05.225Z,3.90
2022-08-03T07:21:09.067Z,4.03
2022-08-03T07:24:10.642Z,3.83
2022-08-03T07:27:12.230Z,3.70
2022-08-03T07:30:14.916Z,3.38
2022-08-03T07:33:16.557Z,3.40
2022-08-03T07:36:18.223Z,3.45
2022-08-03T07:39:20.004Z,2.97
2022-08-03T07:42:23.180Z,3.15
2022-08-03T07:45:26.526Z,3.35
2022-08-03T07:48:28.251Z,3.50
2022-08-03T07:51:29.958Z,3.13
2022-08-03T07:54:32.000Z,3.10
2022-08-03T07:57:34.540Z,3.63
2022-08-03T08:00:36.726Z,3.03
2022-08-03T08:03:52.182Z,3.00
2022-08-03T08:06:54.762Z,3.00
2022-08-03T08:09:56.380Z,2.90
2022-08-03T08:12:58.340Z,3.10
2022-08-03T08:15:59.943Z,2.95
2022-08-03T08:19:02.299Z,3.10
2022-08-03T08:22:03.949Z,2.83
2022-08-03T08:25:07.660Z,2.80
2022-08-03T08:28:22.276Z,2.25
2022-08-03T08:31:30.937Z,2.83
2022-08-03T08:34:32.567Z,2.70
2022-08-03T08:37:34.658Z,2.55
2022-08-03T08:40:36.264Z,2.30
2022-08-03T08:43:38.018Z,2.60
2022-08-03T08:46:39.897Z,2.75
2022-08-03T08:49:53.442Z,2.55
2022-08-03T08:53:04.403Z,2.53
2022-08-03T08:56:10.204Z,3.30
2022-08-03T08:59:12.186Z,2.80
2022-08-03T09:02:13.760Z,2.72
2022-08-03T09:05:24.711Z,2.90
2022-08-03T09:08:33.363Z,3.72
2022-08-03T09:11:51.654Z,2.40
2022-08-03T09:15:16.099Z,3.08
2022-08-03T09:18:32.331Z,3.08
2022-08-03T09:21:34.968Z,2.80
2022-08-03T09:24:41.416Z,2.78
2022-08-03T09:27:46.797Z,2.70
2022-08-03T09:31:00.543Z,2.45
2022-08-03T09:34:04.700Z,3.17
2022-08-03T09:37:15.262Z,2.22
2022-08-03T09:40:35.745Z,2.47
2022-08-03T09:43:47.012Z,2.45
2022-08-03T09:46:53.786Z,2.40
2022-08-03T09:50:01.919Z,1.83
2022-08-03T09:53:04.378Z,2.15
2022-08-03T09:56:36.006Z,2.13
2022-08-03T09:59:32.405Z,2.03
2022-08-03T10:02:35.028Z,2.63
2022-08-03T10:05:38.371Z,2.17
2022-08-03T10:08:40.017Z,2.20
2022-08-03T10:11:42.861Z,2.30
2022-08-03T10:14:47.669Z,2.55
2022-08-03T10:17:49.374Z,2.28
2022-08-03T10:20:59.254Z,2.72
2022-08-03T10:24:07.228Z,2.67
2022-08-03T10:27:12.270Z,2.20
2022-08-03T10:30:15.207Z,2.22
2022-08-03T10:33:50.028Z,2.78
2022-08-03T10:36:49.452Z,2.28
2022-08-03T10:39:55.616Z,3.08
2022-08-03T10:43:06.580Z,3.20
2022-08-03T10:46:45.787Z,3.00
2022-08-03T10:53:07.381Z,2.45
2022-08-03T10:56:53.418Z,2.95
2022-08-03T10:59:57.435Z,2.42
2022-08-03T11:03:11.314Z,2.20
2022-08-03T11:06:25.019Z,2.20
2022-08-03T11:09:42.106Z,1.98
2022-08-03T11:12:45.451Z,1.90
2022-08-03T11:15:51.251Z,2.20
2022-08-03T11:19:08.126Z,2.30
2022-08-03T11:22:10.858Z,2.70
2022-08-03T11:25:53.223Z,2.30
2022-08-03T11:28:41.384Z,2.05
2022-08-03T11:31:50.351Z,2.10
2022-08-03T11:35:23.316Z,1.58
2022-08-03T11:38:25.666Z,1.70
2022-08-03T11:41:44.905Z,2.15
2022-08-03T11:44:47.769Z,1.92
2022-08-03T11:47:54.315Z,1.63
2022-08-03T11:50:57.582Z,1.95
2022-08-03T11:54:04.423Z,1.70
2022-08-03T11:57:06.189Z,2.05
2022-08-03T12:00:32.183Z,1.80
2022-08-03T12:03:35.144Z,1.80
2022-08-03T12:06:55.146Z,1.90
2022-08-03T12:14:26.989Z,1.42
2022-08-03T12:16:34.288Z,2.13
2022-08-03T12:19:43.010Z,1.70
2022-08-03T12:22:44.662Z,2.08
2022-08-03T12:25:47.513Z,1.58
2022-08-03T12:28:51.428Z,1.55
2022-08-03T12:31:53.102Z,1.75
2022-08-03T12:35:00.258Z,1.85
2022-08-03T12:38:03.004Z,1.70
2022-08-03T12:41:15.727Z,1.50
2022-08-03T12:44:17.352Z,1.73
2022-08-03T12:47:19.295Z,1.77
2022-08-03T12:50:35.143Z,1.77
2022-08-03T12:53:37.102Z,1.50
2022-08-03T12:56:57.170Z,1.58
2022-08-03T13:00:21.433Z,2.10
2022-08-03T13:03:43.438Z,1.50
2022-08-03T13:07:03.398Z,2.00
2022-08-03T13:10:08.187Z,1.83
2022-08-03T13:13:10.695Z,1.80
2022-08-03T13:16:17.203Z,1.80
2022-08-03T13:19:20.714Z,1.52
2022-08-03T13:22:24.722Z,1.63
2022-08-03T13:25:26.301Z,1.67
2022-08-03T13:28:27.960Z,2.42
2022-08-03T13:31:29.597Z,2.00
2022-08-03T13:34:31.705Z,1.73
2022-08-03T13:37:33.681Z,1.67
2022-08-03T13:40:38.456Z,1.92
2022-08-03T13:43:43.471Z,2.17
2022-08-03T13:46:45.551Z,2.00
2022-08-03T13:49:56.979Z,1.67
2022-08-03T13:53:02.173Z,1.60
2022-08-03T13:56:04.010Z,1.85
2022-08-03T13:59:06.116Z,1.40
2022-08-03T14:02:07.745Z,1.70
2022-08-03T14:05:09.543Z,1.60
2022-08-03T14:08:12.116Z,1.65
2022-08-03T14:11:14.492Z,1.70
2022-08-03T14:14:16.073Z,1.45
2022-08-03T14:17:18.022Z,1.55
2022-08-03T14:20:37.475Z,1.55
2022-08-03T14:26:43.064Z,1.50
2022-08-03T14:29:44.618Z,1.48
2022-08-03T14:32:46.422Z,1.48
2022-08-03T14:35:48.543Z,1.75
2022-08-03T14:38:50.133Z,1.50
2022-08-03T14:41:51.740Z,1.40
2022-08-03T14:44:57.156Z,1.33
2022-08-03T14:50:33.885Z,1.23
2022-08-03T14:51:24.619Z,1.42
2022-08-03T14:54:26.313Z,1.10
2022-08-03T14:57:28.039Z,1.13
2022-08-03T15:00:29.635Z,1.58
2022-08-03T15:03:31.256Z,1.42
2022-08-03T15:06:32.833Z,1.38
2022-08-03T15:09:34.599Z,1.10
2022-08-03T15:12:36.182Z,1.50
2022-08-03T15:15:37.837Z,1.40
2022-08-03T15:18:39.457Z,1.40
2022-08-03T15:21:46.636Z,1.30
2022-08-03T15:24:49.782Z,1.48
2022-08-03T15:28:02.823Z,1.20
2022-08-03T15:31:06.061Z,1.48
2022-08-03T15:34:07.725Z,1.23
2022-08-03T15:37:24.494Z,1.00
2022-08-03T15:40:26.351Z,1.30
2022-08-03T15:43:27.939Z,1.10
2022-08-03T15:46:30.043Z,1.40
2022-08-03T15:49:31.949Z,1.45
2022-08-03T15:52:35.970Z,1.42
2022-08-03T15:55:37.707Z,1.00
2022-08-03T15:59:11.278Z,0.98
2022-08-03T16:02:01.285Z,1.40
2022-08-03T16:05:03.314Z,1.20
2022-08-03T16:08:07.941Z,1.90
2022-08-03T16:11:12.010Z,1.60
2022-08-03T16:14:32.099Z,1.33
2022-08-03T16:17:35.316Z,1.58
2022-08-03T16:20:36.942Z,1.25
2022-08-03T16:23:39.664Z,1.02
2022-08-03T16:26:45.014Z,1.42
2022-08-03T16:29:46.716Z,1.20
2022-08-03T16:32:48.690Z,1.08
2022-08-03T16:35:50.307Z,1.30
2022-08-03T16:38:51.892Z,1.33
2022-08-03T16:42:01.093Z,1.20
2022-08-03T16:45:05.843Z,1.27
2022-08-03T16:48:08.320Z,1.55
2022-08-03T16:51:10.682Z,1.17
2022-08-03T16:54:14.107Z,1.40
2022-08-03T16:57:16.038Z,1.10
2022-08-03T17:00:34.283Z,1.10
2022-08-03T17:03:42.720Z,1.20
2022-08-03T17:07:04.890Z,1.55
2022-08-03T17:10:09.173Z,1.35
2022-08-03T17:13:10.825Z,1.10
2022-08-03T17:16:15.358Z,1.33
2022-08-03T17:19:21.262Z,1.23
2022-08-03T17:22:35.213Z,1.30
2022-08-03T17:25:51.217Z,1.17
2022-08-03T17:29:12.565Z,1.40
2022-08-03T17:32:21.211Z,1.25
2022-08-03T17:35:23.629Z,1.20
2022-08-03T17:38:26.071Z,1.15
2022-08-03T17:41:33.870Z,1.23
2022-08-03T17:44:46.209Z,1.20
2022-08-03T17:47:57.312Z,1.10
2022-08-03T17:51:04.698Z,1.20
2022-08-03T17:54:18.477Z,1.25
2022-08-03T17:58:02.230Z,1.52
2022-08-03T18:01:59.822Z,1.45
2022-08-03T18:05:02.084Z,1.90
2022-08-03T18:08:09.478Z,1.30
2022-08-03T18:11:16.755Z,1.50
2022-08-03T18:14:35.201Z,1.25
2022-08-03T18:17:55.077Z,1.40
2022-08-03T18:21:06.554Z,1.42
2022-08-03T18:24:11.270Z,1.80
2022-08-03T18:27:15.836Z,1.80
2022-08-03T18:30:17.494Z,1.60
2022-08-03T18:34:16.367Z,1.88
2022-08-03T18:36:47.153Z,1.75
2022-08-03T18:48:15.920Z,1.88
2022-08-03T18:51:24.253Z,2.30
2022-08-03T18:55:02.278Z,2.00
2022-08-03T18:58:18.037Z,1.90
2022-08-03T19:01:59.904Z,2.35
2022-08-03T19:05:09.006Z,2.60
2022-08-03T19:08:43.959Z,2.55
2022-08-03T19:12:12.503Z,2.80
2022-08-03T19:15:15.805Z,3.17
2022-08-03T19:18:18.063Z,3.10
2022-08-03T19:21:19.917Z,4.00
2022-08-03T19:24:26.207Z,4.00
2022-08-03T19:27:30.703Z,3.85
2022-08-03T19:30:53.277Z,3.75
2022-08-03T19:33:58.321Z,4.43
2022-08-03T19:37:00.772Z,4.25
2022-08-03T19:40:05.899Z,3.90
2022-08-03T19:43:33.006Z,4.60
2022-08-03T19:47:01.037Z,4.50
2022-08-03T19:50:13.796Z,4.40
2022-08-03T19:53:16.804Z,4.60
2022-08-03T19:56:23.626Z,4.25
2022-08-03T19:59:26.938Z,3.88
2022-08-03T20:02:29.668Z,4.10
2022-08-03T20:05:45.119Z,3.80
2022-08-03T20:08:54.024Z,3.55
2022-08-03T20:11:57.219Z,3.58
2022-08-03T20:14:59.827Z,3.35
2022-08-03T20:18:02.584Z,4.15
2022-08-03T20:21:14.914Z,3.38
2022-08-03T20:24:23.487Z,3.45
2022-08-03T20:27:30.317Z,3.40
2022-08-03T20:30:32.164Z,2.90
2022-08-03T20:33:46.238Z,3.05
2022-08-03T20:36:50.642Z,3.70
2022-08-03T20:39:54.391Z,3.25
2022-08-03T20:42:56.233Z,3.35
2022-08-03T20:46:00.915Z,3.25
2022-08-03T20:49:23.201Z,3.17
2022-08-03T20:52:26.200Z,3.50
2022-08-03T20:55:48.274Z,5.07
2022-08-03T20:58:51.374Z,3.60
2022-08-03T21:01:53.620Z,3.65
2022-08-03T21:04:56.611Z,4.00
2022-08-03T21:08:06.914Z,3.92
2022-08-03T21:11:14.945Z,3.63
2022-08-03T21:14:24.951Z,4.40
2022-08-03T21:17:40.386Z,3.75
2022-08-03T21:20:44.418Z,3.40
2022-08-03T21:23:49.912Z,3.90
2022-08-03T21:26:54.572Z,3.13
2022-08-03T21:29:58.670Z,3.45
2022-08-03T21:33:00.505Z,3.72
2022-08-03T21:36:02.819Z,3.30
2022-08-03T21:39:08.655Z,2.67
2022-08-03T21:42:10.571Z,2.70
2022-08-03T21:45:17.110Z,3.40
2022-08-03T21:48:21.404Z,3.25
2022-08-03T21:51:29.450Z,3.25
2022-08-03T21:54:39.342Z,3.28
2022-08-03T21:57:43.933Z,4.05
2022-08-03T22:00:46.207Z,2.78
2022-08-03T22:03:53.147Z,3.00
2022-08-03T22:06:56.253Z,2.92
2022-08-03T22:09:59.691Z,3.17
2022-08-03T22:13:01.367Z,2.90
2022-08-03T22:16:03.316Z,3.67
2022-08-03T22:19:04.930Z,2.90
2022-08-03T22:22:13.620Z,3.30
2022-08-03T22:25:16.329Z,3.08
2022-08-03T22:28:19.506Z,3.92
2022-08-03T22:31:30.768Z,2.80
2022-08-03T22:34:45.800Z,3.50
2022-08-03T22:37:51.622Z,3.20
2022-08-03T22:40:56.146Z,3.00
2022-08-03T22:43:58.816Z,3.20
2022-08-03T22:47:06.673Z,3.38
2022-08-03T22:50:31.878Z,2.83
2022-08-03T22:53:33.457Z,2.97
2022-08-03T22:56:35.083Z,2.83
2022-08-03T22:59:42.007Z,2.58
2022-08-03T23:02:46.793Z,3.10
2022-08-03T23:06:00.476Z,2.47
2022-08-03T23:09:10.280Z,2.75
2022-08-03T23:12:17.058Z,2.92
2022-08-03T23:15:18.807Z,3.03
2022-08-03T23:18:22.019Z,3.15
2022-08-03T23:21:53.782Z,3.17
2022-08-03T23:24:49.760Z,3.53
2022-08-03T23:28:05.095Z,3.13
2022-08-03T23:31:08.367Z,3.17
2022-08-03T23:34:32.189Z,3.92
2022-08-03T23:38:03.672Z,3.25
2022-08-03T23:41:01.944Z,2.88
2022-08-03T23:44:04.382Z,3.30
2022-08-03T23:47:05.992Z,3.25
2022-08-03T23:50:07.959Z,3.10
2022-08-03T23:53:22.343Z,3.50
2022-08-03T23:56:33.224Z,3.55
